ENNM

Namsos Høknesøra Airport

Namsos, Norway
METAR ENNM 141220Z 05005KT CAVOK 15/07 Q1009
Observed Flight Rules
Aug-14 @ 12:20 UTC (an hour ago) Visual Flight Rules
Wind Visibility Clouds
50° at 5 knots 10,000+ meters
  • Clear skies
Temperatures Readings
Current 15°C / 59°F
Dewpoint 7°C / 45°F
Humidity 59%
Altimeter 29.79" Hg
Pressure 1009 hPa
Elevation 2
METAR ENNM 141220Z 05005KT CAVOK 15/07 Q1009
Observed Flight Rules
Aug-14 @ 12:20 UTC
(an hour ago)
VFR
Wind Visibility
50° at 5 knots 10,000+ meters
Clouds
  • Clear skies
Temperature Dewpoint
15°C / 59°F 7°C / 45°F
Humidity Altimeter Pressure
59% 29.79" Hg 1009 hPa